Time;durP1;ratioP1;P1;durP2;ratioP2;P2;SDS_P1;SDS_P2;PMS_P1;PMS_P2;Temp;Humidity;BMP_temperature;BMP_pressure;BME280_temperature;BME280_humidity;BME280_pressure;Samples;Min_cycle;Max_cycle;Signal;HPM_P1;HPM_P2
2021/12/14 00:02:28;;;;;;;2.85;2.28;;;11.70;78.10;;;;;;5057179;28;20066;-92
2021/12/14 00:04:59;;;;;;;3.65;2.50;;;11.70;78.10;;;;;;5057768;28;20025;-92
2021/12/14 00:07:25;;;;;;;3.65;2.45;;;11.70;78.10;;;;;;5040544;28;20025;-92
2021/12/14 00:10:00;;;;;;;3.08;2.30;;;11.70;78.10;;;;;;5023811;28;20032;-92
2021/12/14 00:12:42;;;;;;;2.83;2.20;;;11.70;78.10;;;;;;5057634;28;20029;-91
2021/12/14 00:15:13;;;;;;;3.00;2.25;;;11.70;78.10;;;;;;5026469;28;20029;-92
2021/12/14 00:17:58;;;;;;;2.95;2.50;;;11.70;78.10;;;;;;5041018;28;20568;-91
2021/12/14 00:20:29;;;;;;;3.70;2.65;;;11.70;78.20;;;;;;5040353;28;20041;-92
2021/12/14 00:25:31;;;;;;;3.05;2.60;;;11.70;78.10;;;;;;5056986;28;20032;-92
2021/12/14 00:28:04;;;;;;;3.90;2.75;;;11.70;78.20;;;;;;5040218;28;20029;-91
2021/12/14 00:30:32;;;;;;;3.50;2.70;;;11.60;78.10;;;;;;5040054;28;20032;-91
2021/12/14 00:33:00;;;;;;;3.42;2.30;;;11.70;78.10;;;;;;5042880;28;20420;-93
2021/12/14 00:35:26;;;;;;;3.38;2.50;;;11.70;78.10;;;;;;5041771;28;20083;-92
2021/12/14 00:37:54;;;;;;;3.47;2.60;;;11.70;78.10;;;;;;5040798;28;20032;-92
2021/12/14 00:40:31;;;;;;;3.70;2.92;;;11.70;78.20;;;;;;5055691;28;20032;-92
2021/12/14 00:42:58;;;;;;;4.03;2.70;;;11.60;78.10;;;;;;5040955;28;20527;-92
2021/12/14 00:45:28;;;;;;;3.47;2.63;;;11.70;78.10;;;;;;5040555;28;20036;-93
2021/12/14 00:47:54;;;;;;;3.35;2.53;;;11.70;78.20;;;;;;5057120;28;20087;-92
2021/12/14 00:50:23;;;;;;;3.50;2.60;;;11.70;78.10;;;;;;5039357;28;20055;-92
2021/12/14 00:52:50;;;;;;;3.45;2.65;;;11.70;78.10;;;;;;5040514;28;20025;-92
2021/12/14 00:55:23;;;;;;;3.65;2.85;;;11.70;78.10;;;;;;5039378;28;20079;-93
2021/12/14 00:57:51;;;;;;;3.33;2.50;;;11.70;78.10;;;;;;5040661;28;20033;-92
2021/12/14 01:00:22;;;;;;;4.20;3.25;;;11.70;78.10;;;;;;5056150;28;20272;-92
2021/12/14 01:02:48;;;;;;;3.55;2.67;;;11.70;78.10;;;;;;5056544;28;20029;-92
2021/12/14 01:05:24;;;;;;;4.00;3.10;;;11.70;78.10;;;;;;5040590;28;20036;-92
2021/12/14 01:07:51;;;;;;;3.85;2.78;;;11.60;78.10;;;;;;5040063;28;20033;-92
2021/12/14 01:10:34;;;;;;;3.92;2.95;;;11.70;78.10;;;;;;5039754;28;20033;-93
2021/12/14 01:13:05;;;;;;;4.28;2.95;;;11.60;78.20;;;;;;5040037;28;20025;-92
2021/12/14 01:16:14;;;;;;;3.88;2.83;;;11.60;78.10;;;;;;5056143;28;20037;-92
2021/12/14 01:27:05;;;;;;;4.35;3.00;;;11.60;78.10;;;;;;5056130;28;20047;-92
2021/12/14 01:29:32;;;;;;;4.35;3.13;;;11.60;78.10;;;;;;5039337;28;20119;-92
2021/12/14 01:32:01;;;;;;;4.75;3.28;;;11.60;78.10;;;;;;5039456;28;20036;-92
2021/12/14 01:34:31;;;;;;;4.07;2.92;;;11.60;78.20;;;;;;5039374;28;20029;-92
2021/12/14 01:37:04;;;;;;;4.60;3.28;;;11.60;78.10;;;;;;5022697;28;20029;-92
2021/12/14 01:40:04;;;;;;;4.05;3.03;;;11.60;78.10;;;;;;5041779;28;20078;-92
2021/12/14 01:42:41;;;;;;;3.83;2.92;;;11.60;78.10;;;;;;5044278;28;20051;-92
2021/12/14 01:45:08;;;;;;;3.78;2.80;;;11.60;78.10;;;;;;5039328;28;20112;-92
2021/12/14 01:47:45;;;;;;;4.25;3.15;;;11.60;78.10;;;;;;5039303;28;20546;-92
2021/12/14 01:50:37;;;;;;;3.95;3.00;;;11.60;78.20;;;;;;5056230;28;20099;-92
2021/12/14 01:53:20;;;;;;;3.33;2.53;;;11.60;78.10;;;;;;5041176;28;20025;-92
2021/12/14 01:55:52;;;;;;;4.47;3.00;;;11.60;78.10;;;;;;5039122;28;20040;-92
2021/12/14 01:58:24;;;;;;;4.72;3.20;;;11.60;78.20;;;;;;5038303;28;20051;-92
2021/12/14 02:00:56;;;;;;;4.70;3.30;;;11.60;78.20;;;;;;5039250;28;20028;-92
2021/12/14 02:03:30;;;;;;;4.70;3.35;;;11.60;78.20;;;;;;5038786;28;20028;-92
2021/12/14 02:05:56;;;;;;;4.40;3.00;;;11.60;78.20;;;;;;5038668;28;20063;-91
2021/12/14 02:08:28;;;;;;;4.53;3.35;;;11.60;78.10;;;;;;5022398;28;20040;-91
2021/12/14 02:10:57;;;;;;;4.38;3.13;;;11.60;78.10;;;;;;5038806;28;20033;-91
2021/12/14 02:13:31;;;;;;;5.05;3.60;;;11.60;78.10;;;;;;5038432;28;20013;-91
2021/12/14 02:15:58;;;;;;;4.72;3.30;;;11.60;78.20;;;;;;5039009;28;20120;-90
2021/12/14 02:18:28;;;;;;;4.53;3.40;;;11.60;78.10;;;;;;5039612;28;20060;-91
2021/12/14 02:21:00;;;;;;;4.75;3.70;;;11.60;78.10;;;;;;5038532;28;20037;-91
2021/12/14 02:23:28;;;;;;;4.35;3.30;;;11.60;78.10;;;;;;5038337;28;20534;-92
2021/12/14 02:25:57;;;;;;;4.80;3.55;;;11.60;78.10;;;;;;5038230;28;20036;-90
2021/12/14 02:28:23;;;;;;;4.90;3.60;;;11.60;78.10;;;;;;5054540;28;20033;-91
2021/12/14 02:30:52;;;;;;;4.82;3.40;;;11.60;78.10;;;;;;5021741;28;20083;-91
2021/12/14 02:33:34;;;;;;;4.53;3.25;;;11.60;78.10;;;;;;5054942;28;20033;-90
2021/12/14 02:36:04;;;;;;;4.47;3.30;;;11.60;78.20;;;;;;5038271;28;20025;-90
2021/12/14 02:38:31;;;;;;;4.97;3.83;;;11.60;78.10;;;;;;5038446;28;20128;-92
2021/12/14 02:41:02;;;;;;;4.32;3.40;;;11.60;78.10;;;;;;5037571;28;20020;-92
2021/12/14 02:43:38;;;;;;;4.82;3.40;;;11.60;78.10;;;;;;5039669;28;20469;-91
2021/12/14 02:46:13;;;;;;;4.60;3.40;;;11.60;78.10;;;;;;5041914;28;20029;-91
2021/12/14 02:48:42;;;;;;;4.85;3.65;;;11.60;78.20;;;;;;5047363;28;20060;-91
2021/12/14 02:51:37;;;;;;;4.60;3.47;;;11.50;78.10;;;;;;5054975;28;20037;-91
2021/12/14 02:54:17;;;;;;;4.53;3.40;;;11.50;78.20;;;;;;5009563;28;20040;-92
2021/12/14 02:56:48;;;;;;;4.57;3.65;;;11.60;78.20;;;;;;5038248;28;20033;-90
2021/12/14 02:59:21;;;;;;;4.78;3.50;;;11.60;78.10;;;;;;5038013;28;20056;-90
2021/12/14 03:01:50;;;;;;;5.22;3.42;;;11.50;78.10;;;;;;5037653;28;20063;-91
2021/12/14 03:04:18;;;;;;;5.25;3.80;;;11.50;78.10;;;;;;5037687;28;20043;-91
2021/12/14 03:06:50;;;;;;;4.97;3.72;;;11.60;78.10;;;;;;5037953;28;20057;-91
2021/12/14 03:09:40;;;;;;;5.28;3.75;;;11.50;78.10;;;;;;5037891;28;20040;-92
2021/12/14 03:12:18;;;;;;;5.28;3.72;;;11.50;78.10;;;;;;5054752;28;20064;-92
2021/12/14 03:15:15;;;;;;;4.80;3.55;;;11.50;78.10;;;;;;5037732;28;20033;-91
2021/12/14 03:17:43;;;;;;;4.88;3.78;;;11.50;78.20;;;;;;5053180;28;20041;-91
2021/12/14 03:20:12;;;;;;;5.45;4.00;;;11.50;78.10;;;;;;5053976;28;20078;-91
2021/12/14 03:23:00;;;;;;;5.45;3.95;;;11.50;78.10;;;;;;5054355;28;20049;-92
2021/12/14 03:25:27;;;;;;;5.03;3.67;;;11.50;78.20;;;;;;5037450;28;20037;-91
2021/12/14 03:27:55;;;;;;;5.35;4.13;;;11.50;78.10;;;;;;5021391;28;20033;-91
2021/12/14 03:30:24;;;;;;;5.70;4.07;;;11.50;78.10;;;;;;5037108;28;20457;-91
2021/12/14 03:32:51;;;;;;;5.30;4.05;;;11.50;78.20;;;;;;5037751;28;20060;-91
2021/12/14 03:35:19;;;;;;;5.40;4.13;;;11.50;78.10;;;;;;5036823;28;20109;-90
2021/12/14 03:37:46;;;;;;;5.25;3.88;;;11.50;78.10;;;;;;5037210;28;20037;-91
2021/12/14 03:40:14;;;;;;;5.18;3.83;;;11.50;78.20;;;;;;5037505;28;20079;-91
2021/12/14 03:42:41;;;;;;;5.40;3.90;;;11.50;78.20;;;;;;5037542;28;20029;-91
2021/12/14 03:45:17;;;;;;;5.43;4.10;;;11.50;78.20;;;;;;5038139;28;20048;-92
2021/12/14 03:47:56;;;;;;;5.68;4.13;;;11.50;78.20;;;;;;5037312;28;20028;-91
2021/12/14 03:50:28;;;;;;;5.68;4.22;;;11.50;78.20;;;;;;5038639;28;20044;-91
2021/12/14 03:52:56;;;;;;;5.30;3.83;;;11.50;78.20;;;;;;5044527;28;20425;-89
2021/12/14 03:55:45;;;;;;;5.90;4.07;;;11.50;78.10;;;;;;5064819;28;20055;-91
2021/12/14 03:58:17;;;;;;;5.63;4.13;;;11.50;78.30;;;;;;5054826;28;20051;-91
2021/12/14 04:00:54;;;;;;;5.63;4.22;;;11.50;78.10;;;;;;5037668;28;20029;-92
2021/12/14 04:03:22;;;;;;;5.57;4.00;;;11.50;78.20;;;;;;5054494;28;20169;-91
2021/12/14 04:06:08;;;;;;;5.60;3.88;;;11.50;78.10;;;;;;5040547;28;20484;-91
2021/12/14 04:08:34;;;;;;;5.47;4.00;;;11.50;78.10;;;;;;5036982;28;20025;-91
2021/12/14 04:11:04;;;;;;;6.35;4.05;;;11.50;78.20;;;;;;5037237;28;20032;-91
2021/12/14 04:13:34;;;;;;;5.85;4.30;;;11.40;78.20;;;;;;5037553;28;20025;-91
2021/12/14 04:16:03;;;;;;;5.35;3.95;;;11.50;78.20;;;;;;5057610;28;20029;-92
2021/12/14 04:18:29;;;;;;;5.93;4.10;;;11.50;78.20;;;;;;5041358;28;20120;-90
2021/12/14 04:20:58;;;;;;;6.30;4.70;;;11.40;78.10;;;;;;5024375;28;20049;-91
2021/12/14 04:23:35;;;;;;;5.78;4.28;;;11.40;78.10;;;;;;5024392;28;20060;-91
2021/12/14 04:26:07;;;;;;;5.55;4.18;;;11.50;78.20;;;;;;5041506;28;20049;-91
2021/12/14 04:28:39;;;;;;;5.80;4.30;;;11.50;78.20;;;;;;5040271;28;20036;-92
2021/12/14 04:31:06;;;;;;;5.53;4.20;;;11.50;78.20;;;;;;5041102;28;20033;-91
2021/12/14 04:33:35;;;;;;;6.07;4.57;;;11.40;78.10;;;;;;5040398;28;20036;-91
2021/12/14 04:36:07;;;;;;;5.97;4.40;;;11.40;78.10;;;;;;5040507;28;20025;-91
2021/12/14 04:38:43;;;;;;;5.57;4.10;;;11.40;78.10;;;;;;5040839;28;20036;-92
2021/12/14 04:52:19;;;;;;;5.32;4.15;;;11.40;78.10;;;;;;5057923;28;20118;-91
2021/12/14 04:54:49;;;;;;;5.82;4.40;;;11.40;78.10;;;;;;5057733;28;20470;-91
2021/12/14 04:57:23;;;;;;;6.32;4.90;;;11.40;78.20;;;;;;5040959;28;20055;-91
2021/12/14 04:59:51;;;;;;;5.97;4.90;;;11.40;78.10;;;;;;5048418;28;20071;-90
2021/12/14 05:02:23;;;;;;;6.03;4.60;;;11.40;78.10;;;;;;5049086;28;20112;-90
2021/12/14 05:05:21;;;;;;;5.78;4.47;;;11.40;78.20;;;;;;5054847;28;20473;-89
2021/12/14 05:10:55;;;;;;;5.80;4.03;;;11.40;78.20;;;;;;5059151;28;20025;-86
2021/12/14 05:13:25;;;;;;;5.68;4.20;;;11.40;78.10;;;;;;5042836;28;20013;-85
2021/12/14 05:15:52;;;;;;;5.35;4.13;;;11.40;78.20;;;;;;5042711;28;20032;-86
2021/12/14 05:18:18;;;;;;;4.90;3.70;;;11.40;78.20;;;;;;5042910;28;20112;-86
2021/12/14 05:20:47;;;;;;;6.15;4.60;;;11.40;78.20;;;;;;5031494;28;20040;-86
2021/12/14 05:23:25;;;;;;;5.53;4.00;;;11.40;78.20;;;;;;5061980;28;20095;-85
2021/12/14 05:25:52;;;;;;;5.68;4.35;;;11.40;78.20;;;;;;5041044;28;20029;-85
2021/12/14 05:28:20;;;;;;;6.18;4.65;;;11.40;78.20;;;;;;5040454;28;20059;-86
2021/12/14 05:30:51;;;;;;;6.35;4.30;;;11.40;78.20;;;;;;5025771;28;20440;-86
2021/12/14 05:33:37;;;;;;;6.13;4.47;;;11.40;78.20;;;;;;5044256;28;20116;-86
2021/12/14 05:36:23;;;;;;;6.53;4.35;;;11.40;78.10;;;;;;5043096;28;20036;-86
2021/12/14 05:39:00;;;;;;;5.55;4.25;;;11.40;78.20;;;;;;5040657;28;20037;-86
2021/12/14 05:44:39;;;;;;;6.00;4.40;;;11.40;78.20;;;;;;5057630;28;20043;-90
2021/12/14 05:47:10;;;;;;;5.60;4.30;;;11.30;78.10;;;;;;5042131;28;20039;-91
2021/12/14 05:49:50;;;;;;;5.55;4.22;;;11.40;78.20;;;;;;5042297;28;20032;-91
2021/12/14 05:52:22;;;;;;;6.45;4.07;;;11.40;78.20;;;;;;5040927;28;20033;-91
2021/12/14 05:54:56;;;;;;;5.55;4.10;;;11.30;78.10;;;;;;5041859;28;20116;-95
2021/12/14 05:57:26;;;;;;;5.72;4.38;;;11.40;78.20;;;;;;5043343;28;20029;-84
2021/12/14 05:59:54;;;;;;;5.78;4.22;;;11.30;78.10;;;;;;5043180;28;20021;-95
2021/12/14 06:02:23;;;;;;;5.85;4.53;;;11.30;78.10;;;;;;5043378;28;20024;-92
2021/12/14 06:04:53;;;;;;;6.15;3.95;;;11.40;78.80;;;;;;5026952;28;20020;-92
2021/12/14 06:07:23;;;;;;;5.43;4.13;;;11.30;78.10;;;;;;5042832;28;20040;-92
2021/12/14 06:09:51;;;;;;;5.63;4.22;;;11.30;78.10;;;;;;5039149;28;20055;-91
2021/12/14 06:12:30;;;;;;;5.80;4.28;;;11.30;78.10;;;;;;5040311;28;20024;-93
2021/12/14 06:14:59;;;;;;;5.82;4.22;;;11.30;78.10;;;;;;5039047;28;20024;-90
2021/12/14 06:17:39;;;;;;;5.40;3.92;;;11.30;78.10;;;;;;5038855;28;20128;-89
2021/12/14 06:20:18;;;;;;;5.55;3.85;;;11.30;78.10;;;;;;5055495;28;20032;-90
2021/12/14 06:22:47;;;;;;;6.20;4.05;;;11.30;78.10;;;;;;5037634;28;20106;-84
2021/12/14 06:25:31;;;;;;;5.72;3.88;;;11.30;78.20;;;;;;5040272;28;20108;-91
2021/12/14 06:28:01;;;;;;;5.55;4.05;;;11.30;78.10;;;;;;5054662;28;20045;-87
2021/12/14 06:30:31;;;;;;;5.47;3.88;;;11.30;78.20;;;;;;5021514;28;20025;-93
2021/12/14 06:33:02;;;;;;;5.07;3.90;;;11.30;78.20;;;;;;5039061;28;20512;-88
2021/12/14 06:35:44;;;;;;;5.68;4.50;;;11.30;78.20;;;;;;5054512;28;20048;-89
2021/12/14 06:38:28;;;;;;;5.40;3.80;;;11.30;78.20;;;;;;5037007;28;20021;-88
2021/12/14 06:41:06;;;;;;;5.40;3.80;;;11.30;78.20;;;;;;5037672;28;20021;-88
2021/12/14 06:43:44;;;;;;;5.88;4.07;;;11.30;78.10;;;;;;5037848;28;20055;-88
2021/12/14 06:46:17;;;;;;;5.82;4.18;;;11.20;78.10;;;;;;5038516;28;20119;-88
2021/12/14 06:48:59;;;;;;;5.10;3.85;;;11.30;78.10;;;;;;5054147;28;20043;-87
2021/12/14 06:51:32;;;;;;;5.55;3.92;;;11.30;78.20;;;;;;5054203;28;20136;-90
2021/12/14 06:54:10;;;;;;;6.00;4.07;;;11.30;78.20;;;;;;5054452;28;20036;-89
2021/12/14 06:57:01;;;;;;;5.28;3.85;;;11.20;78.10;;;;;;5040072;28;20091;-89
2021/12/14 06:59:40;;;;;;;6.18;4.20;;;11.30;78.20;;;;;;5039141;28;20025;-88
2021/12/14 07:02:11;;;;;;;5.68;4.18;;;11.20;78.10;;;;;;5053958;28;20432;-89
2021/12/14 07:05:00;;;;;;;5.55;4.05;;;11.30;78.20;;;;;;5051068;28;20037;-90
2021/12/14 07:07:30;;;;;;;5.75;4.18;;;11.30;78.10;;;;;;5039201;28;20115;-87
2021/12/14 07:10:03;;;;;;;6.13;4.35;;;11.20;78.10;;;;;;5037902;28;20025;-87
2021/12/14 07:12:42;;;;;;;4.82;3.70;;;11.30;78.20;;;;;;5039984;28;20036;-87
2021/12/14 07:23:51;;;;;;;5.47;3.83;;;11.20;78.30;;;;;;4996760;28;20041;-87
2021/12/14 07:26:18;;;;;;;5.15;3.75;;;11.20;78.30;;;;;;4980486;28;20054;-87
2021/12/14 07:28:45;;;;;;;5.35;3.85;;;11.20;78.20;;;;;;4997107;28;20046;-88
2021/12/14 07:31:19;;;;;;;5.57;3.92;;;11.20;78.40;;;;;;4980958;28;20126;-88
2021/12/14 07:33:51;;;;;;;6.75;4.30;;;11.20;78.40;;;;;;4996820;28;20108;-88
2021/12/14 07:47:50;;;;;;;5.18;3.65;;;11.20;78.40;;;;;;5013400;28;20485;-88
2021/12/14 07:50:16;;;;;;;6.57;4.03;;;11.10;78.40;;;;;;4983304;28;20117;-88
2021/12/14 07:52:44;;;;;;;5.97;4.45;;;11.10;78.30;;;;;;4984867;28;20042;-88
2021/12/14 07:55:21;;;;;;;5.38;3.92;;;11.10;78.30;;;;;;5000185;28;20129;-88
2021/12/14 07:57:48;;;;;;;6.22;4.25;;;11.10;78.40;;;;;;5000496;28;20044;-87
2021/12/14 08:00:24;;;;;;;6.95;4.82;;;11.20;78.40;;;;;;4983960;28;20037;-87
2021/12/14 08:02:55;;;;;;;7.00;4.82;;;11.10;78.30;;;;;;5000359;28;20041;-88
2021/12/14 08:05:31;;;;;;;6.30;4.32;;;11.20;78.40;;;;;;5000091;28;20033;-87
2021/12/14 08:09:17;;;;;;;6.30;4.47;;;11.20;78.30;;;;;;5017239;28;20458;-87
2021/12/14 08:16:00;;;;;;;6.63;4.30;;;11.10;78.30;;;;;;5059369;28;20043;-86
2021/12/14 08:22:33;;;;;;;5.95;4.47;;;11.10;78.40;;;;;;5058479;28;20043;-88
2021/12/14 08:25:32;;;;;;;6.55;4.72;;;11.10;78.40;;;;;;5033184;28;20497;-88
2021/12/14 08:28:06;;;;;;;6.20;4.43;;;11.10;78.50;;;;;;5004379;28;20051;-88
2021/12/14 08:30:34;;;;;;;5.85;4.07;;;11.10;78.40;;;;;;5020443;28;20084;-87
2021/12/14 08:33:00;;;;;;;5.35;3.58;;;11.10;78.40;;;;;;5019597;28;20143;-88
2021/12/14 08:35:27;;;;;;;6.82;4.80;;;11.10;78.40;;;;;;5019867;28;20029;-87
2021/12/14 08:38:22;;;;;;;6.30;4.40;;;11.10;78.30;;;;;;5003773;28;20025;-87
2021/12/14 08:44:54;;;;;;;6.40;4.45;;;11.10;78.40;;;;;;5037504;28;20535;-87
2021/12/14 08:58:25;;;;;;;7.30;5.03;;;11.10;78.50;;;;;;4999482;28;20313;-87
2021/12/14 09:00:56;;;;;;;6.60;4.63;;;11.10;78.40;;;;;;5014874;28;20474;-88
2021/12/14 09:03:35;;;;;;;7.22;5.25;;;11.10;78.50;;;;;;4999301;28;20053;-88
2021/12/14 09:09:56;;;;;;;7.75;5.18;;;11.10;78.60;;;;;;5016077;28;20092;-88
2021/12/14 09:12:34;;;;;;;7.22;5.40;;;11.10;78.40;;;;;;4998996;28;20034;-88
2021/12/14 09:15:08;;;;;;;6.88;4.97;;;11.10;78.50;;;;;;4999357;28;20117;-89
2021/12/14 09:17:34;;;;;;;7.95;5.55;;;11.10;78.50;;;;;;4999732;28;20088;-88
2021/12/14 09:20:08;;;;;;;6.82;5.22;;;11.20;78.50;;;;;;4982748;28;20490;-88
2021/12/14 09:22:41;;;;;;;8.05;6.00;;;11.20;78.50;;;;;;5000835;28;20065;-88
2021/12/14 09:25:14;;;;;;;7.65;5.55;;;11.20;78.50;;;;;;5013658;28;20112;-88
2021/12/14 09:27:40;;;;;;;8.80;6.07;;;11.20;78.50;;;;;;5027078;28;20098;-89
2021/12/14 09:30:09;;;;;;;7.15;5.03;;;11.20;78.50;;;;;;5023187;28;20029;-87
2021/12/14 09:32:36;;;;;;;7.57;5.53;;;11.20;78.50;;;;;;5039391;28;20024;-88
2021/12/14 09:35:06;;;;;;;7.60;5.65;;;11.20;78.50;;;;;;5006329;28;20025;-87
2021/12/14 09:37:32;;;;;;;8.40;5.72;;;11.20;78.50;;;;;;5056471;28;20489;-88
2021/12/14 09:40:07;;;;;;;8.02;5.72;;;11.30;78.50;;;;;;5023410;28;20120;-87
2021/12/14 09:42:34;;;;;;;7.53;5.43;;;11.30;78.50;;;;;;5022241;28;20164;-87
2021/12/14 09:49:03;;;;;;;7.43;5.15;;;11.30;78.60;;;;;;5056753;28;20103;-87
2021/12/14 09:56:04;;;;;;;7.20;5.45;;;11.30;78.60;;;;;;5055100;28;20039;-86
2021/12/14 10:02:34;;;;;;;7.60;5.47;;;11.30;78.60;;;;;;5056031;28;20124;-89
2021/12/14 10:09:02;;;;;;;8.55;5.78;;;11.30;78.70;;;;;;5056001;28;20116;-88
2021/12/14 10:15:32;;;;;;;8.40;5.80;;;11.20;78.60;;;;;;5055389;28;20087;-86
2021/12/14 10:18:11;;;;;;;8.98;5.95;;;11.30;78.50;;;;;;5021139;28;20033;-87
2021/12/14 10:20:46;;;;;;;9.38;6.40;;;11.30;78.50;;;;;;5037574;28;20064;-86
2021/12/14 10:23:14;;;;;;;9.35;6.65;;;11.30;78.60;;;;;;5038619;28;20025;-87
2021/12/14 10:25:40;;;;;;;8.32;6.25;;;11.30;78.50;;;;;;5055257;28;20105;-86
2021/12/14 10:28:06;;;;;;;9.25;6.82;;;11.40;78.50;;;;;;5038923;28;20037;-88
2021/12/14 10:30:38;;;;;;;9.00;6.35;;;11.40;78.50;;;;;;5044080;28;20029;-86
2021/12/14 10:33:08;;;;;;;8.63;5.88;;;11.40;78.50;;;;;;5056448;28;20063;-87
2021/12/14 10:35:45;;;;;;;8.40;6.00;;;11.40;78.50;;;;;;5022242;28;20028;-86
2021/12/14 10:44:02;;;;;;;9.52;6.60;;;11.50;78.40;;;;;;5056378;28;20040;-86
2021/12/14 10:46:33;;;;;;;10.30;7.70;;;11.50;78.30;;;;;;5038031;28;20033;-86
2021/12/14 10:48:59;;;;;;;9.80;6.40;;;11.40;78.40;;;;;;5038537;28;20037;-85
2021/12/14 10:51:29;;;;;;;9.70;6.85;;;11.50;78.40;;;;;;5021779;28;20112;-84
2021/12/14 10:53:58;;;;;;;10.23;7.40;;;11.50;78.40;;;;;;5021510;28;20025;-85
2021/12/14 10:56:28;;;;;;;9.98;6.82;;;11.50;78.40;;;;;;5021365;28;20017;-86
2021/12/14 10:59:00;;;;;;;10.25;7.10;;;11.50;79.00;;;;;;5037573;28;20060;-87
2021/12/14 11:01:32;;;;;;;9.40;6.85;;;11.60;78.40;;;;;;5005029;28;20542;-87
2021/12/14 11:04:08;;;;;;;10.18;7.22;;;11.60;78.40;;;;;;5021011;28;20021;-87
2021/12/14 11:06:38;;;;;;;10.15;7.40;;;11.60;78.40;;;;;;5021791;28;20442;-87
2021/12/14 11:11:54;;;;;;;10.52;7.25;;;11.60;78.30;;;;;;5037352;28;20025;-86
2021/12/14 11:14:28;;;;;;;10.85;7.38;;;11.60;78.30;;;;;;5037597;28;20039;-88
2021/12/14 11:19:49;;;;;;;9.93;6.93;;;11.70;78.40;;;;;;5037199;28;20037;-86
2021/12/14 11:22:22;;;;;;;10.95;7.53;;;11.70;78.30;;;;;;5055104;28;20033;-88
2021/12/14 11:24:56;;;;;;;11.02;7.40;;;11.70;78.30;;;;;;5020421;28;20091;-87
2021/12/14 11:27:29;;;;;;;12.38;8.77;;;11.70;78.30;;;;;;5020659;28;20052;-86
2021/12/14 11:30:15;;;;;;;9.93;7.22;;;11.70;78.30;;;;;;5038053;28;20458;-87
2021/12/14 11:32:42;;;;;;;11.82;8.30;;;11.70;78.40;;;;;;5055083;28;20108;-86
2021/12/14 11:35:22;;;;;;;10.68;7.45;;;11.70;78.20;;;;;;5021051;28;20473;-86
2021/12/14 11:37:49;;;;;;;10.32;7.72;;;11.70;78.30;;;;;;5022238;28;20029;-87
2021/12/14 11:40:15;;;;;;;12.23;8.15;;;11.70;78.20;;;;;;5039822;28;20480;-86
2021/12/14 11:42:41;;;;;;;11.63;8.43;;;11.80;78.20;;;;;;5020991;28;20373;-86
2021/12/14 11:45:13;;;;;;;10.73;7.72;;;11.80;78.20;;;;;;5021015;28;20017;-86
2021/12/14 11:47:46;;;;;;;11.77;8.52;;;11.80;78.20;;;;;;5020855;28;20136;-88
2021/12/14 11:50:27;;;;;;;12.02;8.32;;;11.80;78.20;;;;;;5036618;28;20037;-90
2021/12/14 11:53:02;;;;;;;11.27;8.07;;;11.80;78.10;;;;;;5037165;28;20028;-87
2021/12/14 11:55:28;;;;;;;;;;;11.90;78.10;;;;;;5022342;28;20048;-90
2021/12/14 11:58:36;;;;;;;10.40;7.68;;;11.90;78.10;;;;;;5021320;28;19905;-89
2021/12/14 12:01:17;;;;;;;11.05;7.85;;;11.80;78.10;;;;;;5036885;28;20026;-88
2021/12/14 12:03:46;;;;;;;12.82;8.75;;;11.80;78.10;;;;;;5021343;28;20029;-88
2021/12/14 12:06:43;;;;;;;11.80;8.63;;;11.90;78.10;;;;;;5037318;28;20075;-88
2021/12/14 12:09:36;;;;;;;11.70;8.70;;;11.80;78.20;;;;;;5036868;28;20128;-88
2021/12/14 12:12:06;;;;;;;11.45;8.23;;;11.90;78.20;;;;;;5021415;28;20087;-88
2021/12/14 12:14:49;;;;;;;12.45;9.00;;;11.90;78.10;;;;;;5037229;28;20025;-88
2021/12/14 12:17:20;;;;;;;12.65;8.90;;;11.90;78.10;;;;;;5022298;28;20033;-89
2021/12/14 12:20:05;;;;;;;12.48;8.88;;;11.90;78.10;;;;;;5021403;28;20025;-88
2021/12/14 12:22:36;;;;;;;12.15;8.93;;;11.90;78.20;;;;;;5055426;28;20071;-89
2021/12/14 12:25:05;;;;;;;11.98;8.88;;;11.90;78.10;;;;;;5021044;28;20469;-89
2021/12/14 12:27:33;;;;;;;11.40;8.25;;;12.00;78.10;;;;;;5021070;28;20576;-88
2021/12/14 12:30:07;;;;;;;12.13;9.02;;;12.00;78.10;;;;;;5021201;28;20037;-88
2021/12/14 12:32:33;;;;;;;12.40;8.95;;;12.00;78.10;;;;;;5020619;28;20029;-88
2021/12/14 12:35:29;;;;;;;12.43;9.20;;;12.00;78.00;;;;;;5021336;28;20056;-88
2021/12/14 12:37:57;;;;;;;12.15;8.95;;;12.00;78.10;;;;;;5023461;28;20033;-88
2021/12/14 12:40:49;;;;;;;12.80;9.43;;;12.10;78.00;;;;;;5024842;28;20025;-88
2021/12/14 12:43:23;;;;;;;12.82;8.75;;;12.00;78.10;;;;;;5024854;28;20070;-88
2021/12/14 12:46:10;;;;;;;12.18;8.45;;;12.10;78.00;;;;;;5024321;28;20519;-87
2021/12/14 12:48:39;;;;;;;12.55;9.07;;;12.10;78.10;;;;;;5034716;28;20037;-88
2021/12/14 12:51:04;;;;;;;13.07;8.90;;;12.10;78.00;;;;;;5023303;28;20462;-87
2021/12/14 12:53:30;;;;;;;13.57;9.32;;;12.10;78.00;;;;;;5039776;28;20064;-88
2021/12/14 12:56:13;;;;;;;13.00;9.50;;;12.10;78.00;;;;;;5023892;28;20021;-88
2021/12/14 12:58:44;;;;;;;11.93;8.77;;;12.10;78.10;;;;;;5023949;28;20048;-89
2021/12/14 13:01:11;;;;;;;13.40;10.15;;;12.10;78.00;;;;;;5023506;28;20028;-88
2021/12/14 13:03:42;;;;;;;11.80;8.82;;;12.20;78.00;;;;;;5023146;28;20027;-88
2021/12/14 13:06:18;;;;;;;12.50;8.90;;;12.10;77.90;;;;;;5040380;28;20029;-88
2021/12/14 13:08:51;;;;;;;13.18;9.75;;;12.20;78.00;;;;;;5023626;28;20037;-88
2021/12/14 13:11:17;;;;;;;13.73;9.60;;;12.20;78.60;;;;;;5023442;28;20029;-88
2021/12/14 13:13:48;;;;;;;13.40;9.65;;;12.20;77.90;;;;;;5023256;28;20027;-88
2021/12/14 13:16:17;;;;;;;14.30;10.45;;;12.20;78.00;;;;;;5039839;28;20025;-88
2021/12/14 13:19:09;;;;;;;13.93;9.63;;;12.20;77.90;;;;;;5022715;28;20045;-88
2021/12/14 13:22:02;;;;;;;13.75;9.55;;;12.20;77.90;;;;;;5039535;28;20378;-89
2021/12/14 13:24:29;;;;;;;12.48;9.30;;;12.20;77.90;;;;;;5039758;28;20041;-89
2021/12/14 13:27:09;;;;;;;13.27;9.63;;;12.20;77.90;;;;;;5039060;28;20049;-88
2021/12/14 13:29:52;;;;;;;12.07;9.02;;;12.20;77.90;;;;;;5023356;28;20385;-88
2021/12/14 13:32:23;;;;;;;13.02;9.30;;;12.20;77.90;;;;;;5039424;28;20037;-88
2021/12/14 13:34:58;;;;;;;13.35;9.63;;;12.20;77.90;;;;;;5039160;28;20488;-88
2021/12/14 13:37:41;;;;;;;12.65;8.90;;;12.20;77.90;;;;;;5039191;28;20029;-89
2021/12/14 13:40:30;;;;;;;13.35;9.52;;;12.20;77.90;;;;;;5032541;28;20025;-88
2021/12/14 13:43:22;;;;;;;11.65;8.85;;;12.30;77.90;;;;;;5021526;28;20037;-88
2021/12/14 13:45:58;;;;;;;14.35;10.32;;;12.30;77.90;;;;;;5024750;28;20044;-90
2021/12/14 13:48:36;;;;;;;13.13;10.02;;;12.30;77.90;;;;;;5040429;28;20060;-88
2021/12/14 13:51:07;;;;;;;13.68;9.88;;;12.20;77.80;;;;;;5022754;28;20056;-89
2021/12/14 13:53:33;;;;;;;14.90;9.98;;;12.20;77.80;;;;;;5040048;28;20033;-88
2021/12/14 13:56:03;;;;;;;14.88;10.40;;;12.30;77.80;;;;;;5024520;28;20029;-88
2021/12/14 13:58:31;;;;;;;14.18;10.27;;;12.30;77.80;;;;;;5022380;28;20029;-88
2021/12/14 14:01:05;;;;;;;13.55;9.55;;;12.30;77.80;;;;;;5021538;28;20033;-89
2021/12/14 14:03:40;;;;;;;14.32;10.25;;;12.30;78.40;;;;;;5039099;28;20108;-88
2021/12/14 14:06:13;;;;;;;15.13;10.23;;;12.30;77.80;;;;;;5039501;28;20035;-89
2021/12/14 14:08:41;;;;;;;13.88;9.80;;;12.30;77.80;;;;;;5038846;28;20059;-88
2021/12/14 14:11:21;;;;;;;13.38;10.45;;;12.30;77.80;;;;;;5038221;28;20057;-88
2021/12/14 14:13:48;;;;;;;15.25;10.85;;;12.30;77.90;;;;;;5021681;28;20031;-89
2021/12/14 14:16:14;;;;;;;12.73;9.57;;;12.30;77.70;;;;;;5021799;28;20499;-87
2021/12/14 14:18:44;;;;;;;14.00;10.32;;;12.30;77.70;;;;;;5021529;28;20091;-89
2021/12/14 14:21:12;;;;;;;13.82;10.45;;;12.30;77.80;;;;;;5021386;28;20112;-88
2021/12/14 14:23:50;;;;;;;12.60;9.40;;;12.30;77.70;;;;;;5038632;28;20058;-89
2021/12/14 14:26:21;;;;;;;13.25;9.48;;;12.30;77.80;;;;;;5022347;28;20481;-90
2021/12/14 14:28:51;;;;;;;13.75;9.95;;;12.30;77.70;;;;;;5021577;28;20033;-90
2021/12/14 14:31:43;;;;;;;14.50;10.27;;;12.30;77.70;;;;;;5021926;28;20059;-90
2021/12/14 14:34:37;;;;;;;12.05;8.95;;;12.30;77.80;;;;;;5021813;28;20033;-91
2021/12/14 14:37:12;;;;;;;13.75;9.57;;;12.40;77.90;;;;;;5055847;28;20025;-91
2021/12/14 14:39:46;;;;;;;14.32;9.93;;;12.30;77.70;;;;;;5037962;28;20029;-89
2021/12/14 14:42:28;;;;;;;13.15;9.05;;;12.30;77.80;;;;;;5038222;28;20021;-92
2021/12/14 14:44:58;;;;;;;13.60;9.80;;;12.30;77.80;;;;;;5038094;28;20033;-89
2021/12/14 14:47:37;;;;;;;12.70;9.10;;;12.40;77.80;;;;;;5021647;28;20025;-89
2021/12/14 14:50:22;;;;;;;13.70;9.98;;;12.30;77.80;;;;;;5024613;28;20533;-88
2021/12/14 14:52:50;;;;;;;12.60;8.80;;;12.30;77.80;;;;;;5041355;28;20025;-89
2021/12/14 14:55:24;;;;;;;13.43;9.70;;;12.30;77.70;;;;;;5021427;28;20070;-88
2021/12/14 14:58:02;;;;;;;13.00;10.15;;;12.40;77.80;;;;;;5036996;28;20036;-90
2021/12/14 15:00:31;;;;;;;14.85;10.65;;;12.30;77.70;;;;;;5021836;28;20572;-88
2021/12/14 15:03:04;;;;;;;11.93;8.68;;;12.40;77.80;;;;;;5023527;28;20025;-91
2021/12/14 15:05:42;;;;;;;14.25;9.88;;;12.40;77.80;;;;;;5021739;28;20032;-91